createdAt,value
2018-10-02T00:00:45.535Z,6.00
2018-10-02T00:03:13.958Z,6.53
2018-10-02T00:05:42.675Z,6.00
2018-10-02T00:10:55.524Z,7.00
2018-10-02T00:13:28.364Z,7.20
2018-10-02T00:15:56.855Z,8.13
2018-10-02T00:18:25.386Z,7.93
2018-10-02T00:20:54.650Z,8.67
2018-10-02T00:23:23.268Z,7.77
2018-10-02T00:25:51.690Z,8.60
2018-10-02T00:28:20.214Z,9.83
2018-10-02T00:30:49.163Z,7.90
2018-10-02T00:33:17.834Z,8.60
2018-10-02T00:35:47.203Z,9.17
2018-10-02T00:38:15.952Z,8.50
2018-10-02T00:40:45.297Z,9.90
2018-10-02T00:43:13.931Z,8.87
2018-10-02T00:45:43.103Z,9.03
2018-10-02T00:48:11.681Z,9.30
2018-10-02T00:50:40.526Z,9.10
2018-10-02T00:53:09.954Z,9.00
2018-10-02T00:55:38.530Z,10.03
2018-10-02T00:58:07.075Z,9.27
2018-10-02T01:00:36.163Z,10.50
2018-10-02T01:03:04.791Z,9.40
2018-10-02T01:05:33.239Z,9.90
2018-10-02T01:08:01.774Z,8.53
2018-10-02T01:10:30.383Z,10.03
2018-10-02T01:12:59.089Z,10.40
2018-10-02T01:15:27.587Z,10.70
2018-10-02T01:17:56.291Z,11.50
2018-10-02T01:20:24.785Z,12.20
2018-10-02T01:22:53.666Z,12.00
2018-10-02T01:25:22.440Z,12.33
2018-10-02T01:27:51.044Z,12.60
2018-10-02T01:30:20.273Z,14.40
2018-10-02T01:32:48.863Z,11.60
2018-10-02T01:35:18.193Z,12.80
2018-10-02T01:37:47.748Z,11.70
2018-10-02T01:40:18.726Z,11.40
2018-10-02T01:42:47.234Z,13.43
2018-10-02T01:45:15.951Z,12.80
2018-10-02T01:47:44.483Z,13.00
2018-10-02T01:50:13.352Z,12.17
2018-10-02T01:52:42.700Z,16.20
2018-10-02T01:55:11.221Z,13.30
2018-10-02T01:57:39.667Z,14.40
2018-10-02T02:00:08.377Z,13.93
2018-10-02T02:02:36.949Z,16.83
2018-10-02T02:05:06.560Z,14.83
2018-10-02T02:07:35.193Z,14.00
2018-10-02T02:10:06.075Z,13.00
2018-10-02T02:12:35.031Z,16.43
2018-10-02T02:15:04.065Z,12.80
2018-10-02T02:17:32.816Z,13.40
2018-10-02T02:20:01.665Z,13.37
2018-10-02T02:22:30.245Z,12.60
2018-10-02T02:24:59.283Z,10.93
2018-10-02T02:27:27.831Z,10.80
2018-10-02T02:29:56.389Z,11.13
2018-10-02T02:32:24.922Z,10.43
2018-10-02T02:34:54.049Z,10.27
2018-10-02T02:37:22.892Z,10.03
2018-10-02T02:39:51.390Z,11.10
2018-10-02T02:42:20.942Z,11.17
2018-10-02T02:44:50.178Z,10.90
2018-10-02T02:47:22.941Z,11.33
2018-10-02T02:49:56.553Z,11.00
2018-10-02T02:52:28.375Z,8.97
2018-10-02T02:54:58.166Z,10.17
2018-10-02T02:57:26.839Z,8.60
2018-10-02T02:59:56.121Z,8.00
2018-10-02T03:02:24.618Z,7.87
2018-10-02T03:04:53.282Z,7.40
2018-10-02T03:07:21.731Z,6.43
2018-10-02T03:09:50.289Z,6.03
2018-10-02T03:12:19.853Z,6.37
2018-10-02T03:14:48.402Z,5.43
2018-10-02T03:19:59.818Z,5.00
2018-10-02T03:22:28.283Z,5.40
2018-10-02T03:24:56.795Z,4.90
2018-10-02T03:27:25.462Z,6.00
2018-10-02T03:29:54.202Z,4.43
2018-10-02T03:32:22.903Z,4.53
2018-10-02T03:34:51.353Z,5.60
2018-10-02T03:37:19.863Z,5.37
2018-10-02T03:39:48.840Z,4.37
2018-10-02T03:42:17.936Z,4.30
2018-10-02T03:44:47.288Z,4.47
2018-10-02T03:47:15.707Z,5.00
2018-10-02T03:49:44.508Z,4.33
2018-10-02T03:52:12.989Z,5.10
2018-10-02T03:54:41.504Z,6.10
2018-10-02T03:57:09.970Z,6.13
2018-10-02T03:59:38.868Z,5.63
2018-10-02T04:02:07.836Z,4.97
2018-10-02T04:04:36.363Z,4.93
2018-10-02T04:07:07.000Z,4.37
2018-10-02T04:09:35.371Z,4.43
2018-10-02T04:12:05.815Z,6.40
2018-10-02T04:14:34.310Z,4.10
2018-10-02T04:17:03.626Z,4.10
2018-10-02T04:19:32.120Z,5.50
2018-10-02T04:22:00.609Z,3.77
2018-10-02T04:24:29.230Z,3.63
2018-10-02T04:26:57.593Z,5.50
2018-10-02T04:29:26.229Z,3.60
2018-10-02T04:31:54.621Z,3.87
2018-10-02T04:34:23.150Z,4.80
2018-10-02T04:36:51.646Z,4.77
2018-10-02T04:39:20.172Z,4.90
2018-10-02T04:41:49.151Z,5.50
2018-10-02T04:44:17.729Z,8.97
2018-10-02T04:46:46.276Z,5.90
2018-10-02T04:49:14.663Z,5.00
2018-10-02T04:51:43.759Z,5.30
2018-10-02T04:54:12.258Z,5.60
2018-10-02T04:56:40.977Z,5.73
2018-10-02T04:59:11.326Z,5.93
2018-10-02T05:01:39.871Z,5.43
2018-10-02T05:04:08.671Z,5.30
2018-10-02T05:06:37.081Z,6.00
2018-10-02T05:09:07.175Z,5.83
2018-10-02T05:11:36.008Z,5.63
2018-10-02T05:14:04.566Z,5.50
2018-10-02T05:16:33.059Z,6.60
2018-10-02T05:19:02.995Z,6.20
2018-10-02T05:21:31.510Z,5.43
2018-10-02T05:24:00.037Z,4.37
2018-10-02T05:26:29.451Z,5.33
2018-10-02T05:28:58.295Z,6.93
2018-10-02T05:31:28.017Z,5.30
2018-10-02T05:33:56.686Z,5.03
2018-10-02T05:36:25.649Z,5.07
2018-10-02T05:38:54.276Z,5.60
2018-10-02T05:41:24.099Z,5.23
2018-10-02T05:46:32.439Z,4.47
2018-10-02T05:49:00.889Z,5.63
2018-10-02T05:51:33.364Z,5.10
2018-10-02T05:54:01.922Z,6.23
2018-10-02T05:56:30.533Z,5.53
2018-10-02T05:59:00.506Z,5.33
2018-10-02T06:01:29.205Z,5.30
2018-10-02T06:03:58.537Z,5.83
2018-10-02T06:06:27.111Z,5.23
2018-10-02T06:08:55.704Z,5.97
2018-10-02T06:11:24.137Z,5.70
2018-10-02T06:13:52.811Z,4.93
2018-10-02T06:16:21.856Z,5.23
2018-10-02T06:18:50.570Z,4.30
2018-10-02T06:21:18.987Z,5.00
2018-10-02T06:23:47.812Z,5.20
2018-10-02T06:26:16.252Z,5.07
2018-10-02T06:28:44.810Z,4.40
2018-10-02T06:31:13.538Z,4.10
2018-10-02T06:33:42.089Z,8.00
2018-10-02T06:36:10.476Z,5.17
2018-10-02T06:38:39.935Z,5.27
2018-10-02T06:41:08.505Z,4.63
2018-10-02T06:43:37.194Z,5.23
2018-10-02T06:46:05.671Z,5.70
2018-10-02T06:48:35.428Z,4.93
2018-10-02T06:51:05.547Z,4.30
2018-10-02T06:53:34.010Z,5.63
2018-10-02T06:56:02.519Z,6.17
2018-10-02T06:58:30.863Z,4.70
2018-10-02T07:00:59.795Z,5.80
2018-10-02T07:03:28.183Z,5.20
2018-10-02T07:05:56.655Z,5.40
2018-10-02T07:08:25.964Z,6.10
2018-10-02T07:10:54.515Z,5.63
2018-10-02T07:13:23.280Z,5.50
2018-10-02T07:15:51.743Z,4.80
2018-10-02T07:18:20.355Z,5.70
2018-10-02T07:20:49.662Z,5.30
2018-10-02T07:23:21.000Z,5.40
2018-10-02T07:25:49.584Z,6.20
2018-10-02T07:28:23.560Z,5.30
2018-10-02T07:30:52.411Z,5.13
2018-10-02T07:33:23.389Z,4.80
2018-10-02T07:35:52.437Z,6.50
2018-10-02T07:38:21.642Z,7.13
2018-10-02T07:40:51.081Z,6.63
2018-10-02T07:43:19.707Z,4.87
2018-10-02T07:45:48.319Z,4.60
2018-10-02T07:48:16.956Z,5.57
2018-10-02T07:50:45.584Z,5.37
2018-10-02T07:53:14.095Z,5.43
2018-10-02T07:55:43.090Z,6.03
2018-10-02T07:58:12.911Z,4.87
2018-10-02T08:00:43.776Z,4.33
2018-10-02T08:03:13.768Z,4.93
2018-10-02T08:05:46.083Z,4.17
2018-10-02T08:08:16.850Z,4.50
2018-10-02T08:10:46.591Z,5.10
2018-10-02T08:13:15.591Z,4.20
2018-10-02T08:15:45.624Z,3.50
2018-10-02T08:18:14.593Z,4.43
2018-10-02T08:20:44.837Z,3.50
2018-10-02T08:23:14.504Z,4.47
2018-10-02T08:25:47.428Z,12.03
2018-10-02T08:28:19.219Z,4.70
2018-10-02T08:30:50.884Z,4.43
2018-10-02T08:33:21.686Z,5.13
2018-10-02T08:35:51.925Z,5.10
2018-10-02T08:38:22.426Z,4.87
2018-10-02T08:40:55.727Z,5.23
2018-10-02T08:43:24.968Z,4.37
2018-10-02T08:45:55.901Z,4.90
2018-10-02T08:48:24.483Z,5.13
2018-10-02T08:50:55.135Z,4.90
2018-10-02T08:53:25.231Z,5.10
2018-10-02T08:55:57.676Z,5.27
2018-10-02T08:58:26.963Z,5.00
2018-10-02T09:00:55.882Z,4.83
2018-10-02T09:03:25.706Z,3.40
2018-10-02T09:05:55.010Z,4.73
2018-10-02T09:08:23.768Z,4.00
2018-10-02T09:10:53.433Z,4.30
2018-10-02T09:13:22.272Z,7.73
2018-10-02T09:15:51.415Z,11.77
2018-10-02T09:18:19.992Z,3.90
2018-10-02T09:20:48.950Z,4.40
2018-10-02T09:23:17.626Z,4.00
2018-10-02T09:25:47.732Z,4.57
2018-10-02T09:28:16.480Z,4.47
2018-10-02T09:30:49.941Z,3.60
2018-10-02T09:33:22.955Z,3.33
2018-10-02T09:35:55.834Z,4.20
2018-10-02T09:38:29.601Z,3.97
2018-10-02T09:41:02.670Z,4.10
2018-10-02T09:43:35.571Z,4.47
2018-10-02T09:46:04.417Z,3.37
2018-10-02T09:48:32.911Z,3.63
2018-10-02T09:51:01.648Z,3.83
2018-10-02T09:53:30.682Z,4.30
2018-10-02T09:55:59.417Z,3.70
2018-10-02T09:58:28.933Z,2.97
2018-10-02T10:01:01.878Z,4.10
2018-10-02T10:03:30.341Z,3.23
2018-10-02T10:05:59.270Z,3.60
2018-10-02T10:08:27.796Z,3.40
2018-10-02T10:10:56.434Z,3.63
2018-10-02T10:13:25.082Z,2.90
2018-10-02T10:15:54.537Z,3.10
2018-10-02T10:18:23.010Z,2.90
2018-10-02T10:20:51.460Z,3.30
2018-10-02T10:23:20.120Z,3.60
2018-10-02T10:25:48.659Z,3.33
2018-10-02T10:28:17.243Z,3.73
2018-10-02T10:30:46.262Z,3.00
2018-10-02T10:33:14.894Z,3.53
2018-10-02T10:35:43.503Z,3.57
2018-10-02T10:38:12.142Z,4.00
2018-10-02T10:40:40.630Z,4.20
2018-10-02T10:43:09.086Z,4.70
2018-10-02T10:45:37.601Z,4.47
2018-10-02T10:48:06.057Z,4.37
2018-10-02T10:50:35.009Z,5.20
2018-10-02T10:53:05.030Z,4.23
2018-10-02T10:55:35.074Z,9.30
2018-10-02T10:58:05.061Z,7.30
2018-10-02T11:00:33.834Z,4.30
2018-10-02T11:03:03.194Z,4.33
2018-10-02T11:05:31.712Z,5.00
2018-10-02T11:08:01.495Z,6.23
2018-10-02T11:10:30.295Z,4.40
2018-10-02T11:12:59.327Z,4.80
2018-10-02T11:15:29.810Z,4.23
2018-10-02T11:18:00.148Z,3.70
2018-10-02T11:20:31.222Z,3.60
2018-10-02T11:23:00.414Z,4.40
2018-10-02T11:25:29.304Z,3.60
2018-10-02T11:27:57.743Z,3.63
2018-10-02T11:30:26.734Z,3.40
2018-10-02T11:32:55.168Z,2.87
2018-10-02T11:35:23.984Z,2.80
2018-10-02T11:37:52.877Z,2.93
2018-10-02T11:40:21.519Z,2.63
2018-10-02T11:42:52.883Z,3.77
2018-10-02T11:45:21.741Z,2.30
2018-10-02T11:47:50.906Z,3.40
2018-10-02T11:50:19.719Z,2.70
2018-10-02T11:52:48.631Z,2.70
2018-10-02T11:55:17.107Z,2.20
2018-10-02T11:57:46.722Z,2.50
2018-10-02T12:00:15.284Z,2.57
2018-10-02T12:02:43.998Z,2.63
2018-10-02T12:05:12.859Z,2.70
2018-10-02T12:07:42.606Z,2.90
2018-10-02T12:10:11.127Z,2.60
2018-10-02T12:12:39.702Z,2.30
2018-10-02T12:15:08.794Z,2.60
2018-10-02T12:17:37.884Z,2.70
2018-10-02T12:20:06.619Z,2.60
2018-10-02T12:22:35.176Z,2.80
2018-10-02T12:25:03.839Z,2.70
2018-10-02T12:27:32.472Z,3.13
2018-10-02T12:30:02.775Z,3.33
2018-10-02T12:32:31.431Z,3.93
2018-10-02T12:34:59.993Z,3.27
2018-10-02T12:37:28.801Z,3.50
2018-10-02T12:39:57.507Z,3.30
2018-10-02T12:42:26.613Z,4.10
2018-10-02T12:44:55.501Z,3.80
2018-10-02T12:47:24.669Z,4.70
2018-10-02T12:49:53.255Z,5.00
2018-10-02T12:52:22.103Z,4.03
2018-10-02T12:54:50.640Z,4.33
2018-10-02T12:57:19.492Z,4.57
2018-10-02T12:59:48.363Z,5.10
2018-10-02T13:02:17.350Z,4.90
2018-10-02T13:04:46.140Z,5.17
2018-10-02T13:07:14.649Z,6.10
2018-10-02T13:09:43.461Z,5.00
2018-10-02T13:12:12.129Z,4.77
2018-10-02T13:14:40.842Z,4.97
2018-10-02T13:17:09.513Z,4.20
2018-10-02T13:19:38.826Z,4.50
2018-10-02T13:22:07.361Z,4.73
2018-10-02T13:24:36.619Z,4.50
2018-10-02T13:27:05.275Z,5.10
2018-10-02T13:29:33.693Z,4.83
2018-10-02T13:32:02.292Z,4.90
2018-10-02T13:34:31.039Z,4.90
2018-10-02T13:36:59.510Z,6.13
2018-10-02T13:39:28.058Z,6.67
2018-10-02T13:41:56.501Z,7.60
2018-10-02T13:44:25.864Z,7.27
2018-10-02T13:46:55.663Z,7.50
2018-10-02T13:49:24.156Z,8.70
2018-10-02T13:51:52.828Z,10.20
2018-10-02T13:54:21.250Z,10.10
2018-10-02T13:56:50.360Z,10.37
2018-10-02T13:59:18.873Z,11.87
2018-10-02T14:01:47.928Z,11.50
2018-10-02T14:04:17.581Z,10.70
2018-10-02T14:06:49.598Z,12.30
2018-10-02T14:09:20.583Z,12.60
2018-10-02T14:11:50.212Z,14.63
2018-10-02T14:14:20.151Z,15.27
2018-10-02T14:16:49.928Z,15.13
2018-10-02T14:19:21.771Z,15.87
2018-10-02T14:21:52.284Z,17.07
2018-10-02T14:24:26.329Z,17.47
2018-10-02T14:26:56.875Z,19.47
2018-10-02T14:29:26.086Z,20.27
2018-10-02T14:31:56.244Z,20.93
2018-10-02T14:34:25.978Z,18.83
2018-10-02T14:36:55.357Z,21.60
2018-10-02T14:39:24.637Z,23.03
2018-10-02T14:41:54.068Z,23.50
2018-10-02T14:44:31.190Z,22.00
2018-10-02T14:47:17.887Z,23.60
2018-10-02T14:49:48.554Z,23.70
2018-10-02T14:52:17.932Z,24.87
2018-10-02T14:54:46.598Z,24.63
2018-10-02T14:57:15.551Z,27.13
2018-10-02T14:59:45.796Z,27.87
2018-10-02T15:02:16.070Z,26.27
2018-10-02T15:04:47.417Z,28.43
2018-10-02T15:07:17.283Z,30.00
2018-10-02T15:09:47.335Z,28.13
2018-10-02T15:12:18.448Z,27.70
2018-10-02T15:14:49.317Z,29.47
2018-10-02T15:17:19.847Z,33.37
2018-10-02T15:19:52.564Z,34.60
2018-10-02T15:22:22.069Z,32.10
2018-10-02T15:24:55.191Z,29.17
2018-10-02T15:27:25.260Z,29.97
2018-10-02T15:29:54.646Z,31.03
2018-10-02T15:32:24.611Z,30.30
2018-10-02T15:34:54.658Z,30.97
2018-10-02T15:37:24.327Z,30.30
2018-10-02T15:39:54.018Z,31.90
2018-10-02T15:42:24.626Z,30.40
2018-10-02T15:44:53.961Z,33.20
2018-10-02T15:47:22.594Z,32.90
2018-10-02T15:49:52.398Z,34.50
2018-10-02T15:52:22.462Z,30.77
2018-10-02T15:54:51.382Z,29.90
2018-10-02T15:57:20.786Z,32.40
2018-10-02T15:59:52.484Z,33.40
2018-10-02T16:02:22.509Z,30.57
2018-10-02T16:04:52.236Z,30.77
2018-10-02T16:07:22.139Z,34.00
2018-10-02T16:09:57.261Z,34.53
2018-10-02T16:12:26.390Z,31.30
2018-10-02T16:14:57.152Z,33.90
2018-10-02T16:17:27.938Z,30.33
2018-10-02T16:19:56.965Z,33.67
2018-10-02T16:22:27.301Z,31.90
2018-10-02T16:24:56.042Z,34.17
2018-10-02T16:27:24.687Z,33.00
2018-10-02T16:29:53.328Z,31.57
2018-10-02T16:32:21.936Z,31.00
2018-10-02T16:34:51.444Z,32.40
2018-10-02T16:37:20.607Z,32.30
2018-10-02T16:39:49.274Z,29.90
2018-10-02T16:42:18.058Z,31.87
2018-10-02T16:44:46.604Z,30.50
2018-10-02T16:47:15.196Z,32.47
2018-10-02T16:49:43.578Z,32.10
2018-10-02T16:52:12.163Z,30.80
2018-10-02T16:54:40.923Z,32.50
2018-10-02T16:57:09.891Z,29.87
2018-10-02T16:59:40.135Z,30.17
2018-10-02T17:02:08.925Z,27.43
2018-10-02T17:04:37.848Z,28.83
2018-10-02T17:07:07.455Z,25.10
2018-10-02T17:09:35.986Z,23.23
2018-10-02T17:12:04.565Z,23.00
2018-10-02T17:14:33.101Z,20.73
2018-10-02T17:17:02.185Z,17.27
2018-10-02T17:19:30.730Z,14.50
2018-10-02T17:22:00.765Z,14.53
2018-10-02T17:24:29.804Z,11.97
2018-10-02T17:27:00.233Z,11.70
2018-10-02T17:29:29.808Z,13.00
2018-10-02T17:31:59.873Z,14.90
2018-10-02T17:34:30.065Z,15.00
2018-10-02T17:37:00.081Z,12.90
2018-10-02T17:39:31.602Z,12.13
2018-10-02T17:42:00.138Z,14.00
2018-10-02T17:44:28.934Z,12.50
2018-10-02T17:46:58.844Z,11.93
2018-10-02T17:49:27.831Z,12.03
2018-10-02T17:51:56.768Z,11.03
2018-10-02T17:54:25.535Z,12.90
2018-10-02T17:56:53.952Z,12.87
2018-10-02T17:59:22.995Z,12.10
2018-10-02T18:01:51.763Z,15.00
2018-10-02T18:04:20.944Z,14.30
2018-10-02T18:06:50.487Z,17.10
2018-10-02T18:09:19.064Z,17.17
2018-10-02T18:11:48.769Z,18.10
2018-10-02T18:14:17.278Z,19.73
2018-10-02T18:16:45.733Z,19.03
2018-10-02T18:19:14.848Z,18.10
2018-10-02T18:21:43.329Z,18.80
2018-10-02T18:24:11.904Z,18.03
2018-10-02T18:26:40.421Z,11.93
2018-10-02T18:29:10.595Z,12.20
2018-10-02T18:31:43.143Z,10.77
2018-10-02T18:34:12.653Z,9.90
2018-10-02T18:36:41.430Z,7.40
2018-10-02T18:39:11.579Z,7.00
2018-10-02T18:41:42.529Z,7.47
2018-10-02T18:44:12.223Z,6.97
2018-10-02T18:46:42.746Z,7.70
2018-10-02T18:49:13.045Z,6.20
2018-10-02T18:51:43.174Z,6.90
2018-10-02T18:54:14.265Z,5.97
2018-10-02T18:56:44.231Z,6.10
2018-10-02T18:59:12.907Z,6.10
2018-10-02T19:01:41.460Z,5.00
2018-10-02T19:04:10.562Z,5.10
2018-10-02T19:06:39.856Z,4.40
2018-10-02T19:09:12.597Z,5.10
2018-10-02T19:11:45.701Z,4.20
2018-10-02T19:14:14.336Z,3.73
2018-10-02T19:16:43.385Z,4.43
2018-10-02T19:19:16.269Z,3.10
2018-10-02T19:21:44.912Z,3.70
2018-10-02T19:24:13.744Z,3.50
2018-10-02T19:26:42.670Z,4.27
2018-10-02T19:29:11.177Z,4.17
2018-10-02T19:31:44.567Z,2.90
2018-10-02T19:34:13.306Z,3.10
2018-10-02T19:36:42.109Z,3.67
2018-10-02T19:39:14.939Z,3.00
2018-10-02T19:41:43.405Z,3.27
2018-10-02T19:44:12.536Z,3.00
2018-10-02T19:46:44.994Z,2.87
2018-10-02T19:49:13.685Z,2.50
2018-10-02T19:51:47.352Z,4.10
2018-10-02T19:54:16.879Z,3.47
2018-10-02T19:56:45.763Z,3.43
2018-10-02T19:59:14.833Z,3.33
2018-10-02T20:01:44.563Z,3.00
2018-10-02T20:04:13.485Z,3.40
2018-10-02T20:06:43.319Z,4.50
2018-10-02T20:09:12.329Z,3.30
2018-10-02T20:11:41.197Z,3.27
2018-10-02T20:14:11.265Z,3.33
2018-10-02T20:16:39.970Z,3.23
2018-10-02T20:19:10.565Z,3.60
2018-10-02T20:21:39.658Z,2.97
2018-10-02T20:24:10.512Z,4.17
2018-10-02T20:26:39.422Z,2.80
2018-10-02T20:29:08.185Z,3.90
2018-10-02T20:31:43.075Z,3.53
2018-10-02T20:34:11.878Z,3.10
2018-10-02T20:36:40.635Z,3.50
2018-10-02T20:39:10.431Z,3.50
2018-10-02T20:41:39.097Z,3.10
2018-10-02T20:44:07.854Z,3.40
2018-10-02T20:46:36.291Z,2.90
2018-10-02T20:49:04.880Z,3.07
2018-10-02T20:51:33.538Z,3.30
2018-10-02T20:54:02.149Z,4.60
2018-10-02T20:56:31.191Z,3.70
2018-10-02T20:58:59.942Z,3.73
2018-10-02T21:01:29.306Z,3.20
2018-10-02T21:03:58.485Z,3.27
2018-10-02T21:06:27.555Z,2.97
2018-10-02T21:08:56.076Z,3.63
2018-10-02T21:11:25.063Z,3.07
2018-10-02T21:13:53.687Z,3.33
2018-10-02T21:16:23.434Z,3.00
2018-10-02T21:18:52.885Z,3.27
2018-10-02T21:21:21.616Z,3.20
2018-10-02T21:23:50.359Z,2.73
2018-10-02T21:26:19.274Z,3.23
2018-10-02T21:28:47.974Z,3.13
2018-10-02T21:31:17.004Z,3.53
2018-10-02T21:33:45.621Z,3.40
2018-10-02T21:36:14.172Z,3.50
2018-10-02T21:38:42.800Z,4.27
2018-10-02T21:41:11.407Z,3.77
2018-10-02T21:43:40.403Z,3.07
2018-10-02T21:46:08.907Z,3.30
2018-10-02T21:48:37.525Z,3.00
2018-10-02T21:51:06.004Z,2.90
2018-10-02T21:53:34.701Z,3.00
2018-10-02T21:56:03.386Z,3.43
2018-10-02T21:58:31.842Z,3.07
2018-10-02T22:01:04.710Z,3.90
2018-10-02T22:03:35.309Z,3.70
2018-10-02T22:06:04.154Z,5.53
2018-10-02T22:08:32.672Z,2.77
2018-10-02T22:11:01.680Z,3.40
2018-10-02T22:13:30.151Z,3.80
2018-10-02T22:15:59.284Z,3.90
2018-10-02T22:18:28.085Z,3.10
2018-10-02T22:20:57.496Z,3.20
2018-10-02T22:23:26.182Z,4.40
2018-10-02T22:25:54.891Z,3.47
2018-10-02T22:28:23.634Z,3.90
2018-10-02T22:30:52.541Z,2.93
2018-10-02T22:33:21.232Z,4.33
2018-10-02T22:35:49.758Z,3.63
2018-10-02T22:38:18.213Z,3.00
2018-10-02T22:40:47.039Z,3.20
2018-10-02T22:43:15.588Z,3.97
2018-10-02T22:45:44.173Z,4.33
2018-10-02T22:48:12.997Z,3.50
2018-10-02T22:50:41.995Z,3.70
2018-10-02T22:53:10.744Z,3.53
2018-10-02T22:55:39.158Z,4.03
2018-10-02T22:58:08.491Z,3.90
2018-10-02T23:00:37.141Z,3.90
2018-10-02T23:03:07.256Z,3.77
2018-10-02T23:05:35.739Z,3.37
2018-10-02T23:08:04.838Z,4.00
2018-10-02T23:10:33.583Z,2.90
2018-10-02T23:13:03.083Z,2.90
2018-10-02T23:15:31.712Z,4.10
2018-10-02T23:18:02.358Z,3.47
2018-10-02T23:20:31.328Z,3.60
2018-10-02T23:23:00.199Z,3.30
2018-10-02T23:25:29.045Z,3.93
2018-10-02T23:27:57.757Z,4.17
2018-10-02T23:30:27.675Z,4.87
2018-10-02T23:32:56.272Z,3.40
2018-10-02T23:35:24.988Z,4.40
2018-10-02T23:37:54.450Z,3.30
2018-10-02T23:40:22.949Z,4.10
2018-10-02T23:42:51.483Z,4.20
2018-10-02T23:45:19.893Z,3.77
2018-10-02T23:47:48.787Z,4.03
2018-10-02T23:50:18.324Z,3.60
2018-10-02T23:52:47.134Z,3.67
2018-10-02T23:55:15.661Z,3.97
2018-10-02T23:57:44.620Z,4.53
